createdAt,value
2018-08-20T00:00:49.131Z,19.30
2018-08-20T00:03:20.863Z,19.30
2018-08-20T00:05:56.817Z,19.30
2018-08-20T00:08:27.532Z,19.30
2018-08-20T00:11:02.694Z,19.30
2018-08-20T00:13:33.666Z,19.40
2018-08-20T00:16:04.504Z,19.40
2018-08-20T00:18:35.012Z,19.30
2018-08-20T00:21:06.099Z,19.40
2018-08-20T00:23:38.004Z,19.30
2018-08-20T00:26:08.464Z,19.30
2018-08-20T00:28:39.307Z,19.30
2018-08-20T00:31:09.904Z,19.30
2018-08-20T00:33:40.623Z,19.30
2018-08-20T00:36:12.430Z,19.30
2018-08-20T00:38:43.641Z,19.30
2018-08-20T00:41:14.704Z,19.30
2018-08-20T00:43:45.552Z,19.30
2018-08-20T00:46:16.272Z,19.40
2018-08-20T00:48:47.125Z,19.40
2018-08-20T00:51:18.234Z,19.40
2018-08-20T00:53:48.956Z,19.40
2018-08-20T00:56:20.138Z,19.40
2018-08-20T00:58:51.202Z,19.40
2018-08-20T01:01:21.678Z,19.40
2018-08-20T01:03:52.646Z,19.40
2018-08-20T01:06:23.487Z,19.40
2018-08-20T01:08:53.728Z,19.30
2018-08-20T01:11:24.323Z,19.30
2018-08-20T01:13:56.248Z,19.30
2018-08-20T01:16:26.854Z,19.30
2018-08-20T01:18:57.934Z,19.30
2018-08-20T01:21:29.255Z,19.30
2018-08-20T01:24:00.089Z,19.30
2018-08-20T01:26:32.062Z,19.30
2018-08-20T01:29:03.485Z,19.30
2018-08-20T01:31:34.421Z,19.30
2018-08-20T01:34:05.137Z,19.30
2018-08-20T01:36:35.377Z,19.30
2018-08-20T01:39:06.943Z,19.30
2018-08-20T01:41:38.257Z,19.30
2018-08-20T01:44:08.879Z,19.30
2018-08-20T01:46:41.385Z,19.40
2018-08-20T01:49:11.869Z,19.40
2018-08-20T01:51:42.590Z,19.30
2018-08-20T01:54:13.700Z,19.30
2018-08-20T01:56:44.993Z,19.30
2018-08-20T01:59:15.832Z,19.30
2018-08-20T02:01:46.311Z,19.20
2018-08-20T02:04:17.992Z,19.20
2018-08-20T02:06:52.702Z,19.20
2018-08-20T02:09:23.526Z,19.30
2018-08-20T02:11:54.356Z,19.30
2018-08-20T02:14:25.203Z,19.30
2018-08-20T02:16:55.688Z,19.30
2018-08-20T02:19:26.526Z,19.30
2018-08-20T02:21:57.135Z,19.20
2018-08-20T02:24:27.984Z,19.30
2018-08-20T02:26:58.950Z,19.20
2018-08-20T02:29:30.128Z,19.20
2018-08-20T02:32:15.729Z,19.20
2018-08-20T02:34:47.551Z,19.20
2018-08-20T02:37:18.862Z,19.20
2018-08-20T02:39:49.972Z,19.30
2018-08-20T02:42:20.896Z,19.20
2018-08-20T02:44:51.736Z,19.20
2018-08-20T02:47:23.198Z,19.20
2018-08-20T02:49:55.002Z,19.20
2018-08-20T02:52:25.481Z,19.20
2018-08-20T02:54:57.034Z,19.20
2018-08-20T02:57:27.871Z,19.20
2018-08-20T02:59:59.083Z,19.20
2018-08-20T03:02:29.931Z,19.20
2018-08-20T03:05:01.844Z,19.20
2018-08-20T03:07:33.436Z,19.20
2018-08-20T03:10:04.848Z,19.30
2018-08-20T03:12:36.156Z,19.20
2018-08-20T03:15:07.855Z,19.20
2018-08-20T03:17:38.322Z,19.20
2018-08-20T03:20:09.282Z,19.20
2018-08-20T03:22:40.245Z,19.20
2018-08-20T03:25:11.233Z,19.20
2018-08-20T03:27:42.881Z,19.20
2018-08-20T03:30:13.381Z,19.20
2018-08-20T03:32:44.809Z,19.20
2018-08-20T03:35:16.872Z,19.20
2018-08-20T03:37:49.260Z,19.20
2018-08-20T03:40:22.173Z,19.20
2018-08-20T03:42:54.561Z,19.20
2018-08-20T03:45:26.575Z,19.10
2018-08-20T03:47:57.665Z,19.10
2018-08-20T03:50:28.525Z,19.20
2018-08-20T03:52:59.481Z,19.20
2018-08-20T03:55:31.545Z,19.20
2018-08-20T03:58:02.829Z,19.20
2018-08-20T04:00:33.669Z,19.20
2018-08-20T04:03:04.659Z,19.20
2018-08-20T04:05:35.949Z,19.20
2018-08-20T04:08:07.761Z,19.20
2018-08-20T04:10:40.149Z,19.20
2018-08-20T04:13:11.469Z,19.20
2018-08-20T04:15:43.517Z,19.20
2018-08-20T04:18:14.115Z,19.20
2018-08-20T04:20:45.442Z,19.20
2018-08-20T04:23:17.238Z,19.20
2018-08-20T04:25:48.574Z,19.20
2018-08-20T04:28:19.886Z,19.20
2018-08-20T04:30:51.214Z,19.20
2018-08-20T04:33:22.400Z,19.10
2018-08-20T04:35:53.504Z,19.10
2018-08-20T04:38:26.888Z,19.20
2018-08-20T04:40:59.486Z,19.20
2018-08-20T04:43:31.529Z,19.20
2018-08-20T04:46:03.235Z,19.20
2018-08-20T04:48:34.423Z,19.20
2018-08-20T04:51:08.141Z,19.20
2018-08-20T04:53:40.904Z,19.20
2018-08-20T04:56:11.986Z,19.20
2018-08-20T04:58:43.065Z,19.20
2018-08-20T05:01:13.541Z,19.20
2018-08-20T05:03:44.277Z,19.20
2018-08-20T05:06:15.107Z,19.20
2018-08-20T05:08:45.754Z,19.20
2018-08-20T05:11:16.671Z,19.20
2018-08-20T05:13:48.491Z,19.20
2018-08-20T05:16:20.149Z,19.30
2018-08-20T05:18:51.492Z,19.30
2018-08-20T05:21:23.049Z,19.30
2018-08-20T05:23:53.879Z,19.30
2018-08-20T05:26:24.613Z,19.30
2018-08-20T05:28:55.493Z,19.30
2018-08-20T05:31:27.607Z,19.40
2018-08-20T05:33:58.805Z,19.40
2018-08-20T05:36:30.003Z,19.40
2018-08-20T05:39:01.802Z,19.40
2018-08-20T05:41:33.138Z,19.40
2018-08-20T05:44:05.551Z,19.50
2018-08-20T05:46:37.209Z,19.50
2018-08-20T05:49:08.665Z,19.50
2018-08-20T05:51:40.100Z,19.50
2018-08-20T05:54:11.229Z,19.50
2018-08-20T05:56:41.911Z,19.50
2018-08-20T05:59:13.293Z,19.50
2018-08-20T06:01:44.546Z,19.50
2018-08-20T06:04:15.167Z,19.50
2018-08-20T06:06:46.378Z,19.50
2018-08-20T06:09:17.580Z,19.50
2018-08-20T06:11:48.519Z,19.60
2018-08-20T06:14:19.830Z,19.60
2018-08-20T06:16:53.555Z,19.60
2018-08-20T06:19:24.886Z,19.60
2018-08-20T06:21:56.442Z,19.70
2018-08-20T06:24:28.769Z,19.70
2018-08-20T06:26:59.678Z,19.80
2018-08-20T06:29:31.012Z,19.80
2018-08-20T06:32:01.979Z,19.90
2018-08-20T06:34:33.636Z,20.00
2018-08-20T06:37:05.085Z,20.00
2018-08-20T06:39:35.848Z,20.20
2018-08-20T06:42:06.761Z,20.20
2018-08-20T06:44:38.211Z,20.40
2018-08-20T06:47:09.779Z,20.50
2018-08-20T06:49:44.369Z,20.60
2018-08-20T06:52:15.314Z,20.70
2018-08-20T06:54:47.449Z,20.70
2018-08-20T06:57:21.420Z,20.70
2018-08-20T06:59:51.782Z,20.80
2018-08-20T07:02:23.218Z,20.80
2018-08-20T07:04:54.444Z,20.80
2018-08-20T07:07:25.622Z,20.80
2018-08-20T07:09:58.885Z,20.80
2018-08-20T07:12:30.674Z,20.90
2018-08-20T07:15:01.983Z,20.90
2018-08-20T07:17:32.986Z,20.90
2018-08-20T07:20:03.686Z,20.90
2018-08-20T07:22:34.874Z,20.90
2018-08-20T07:25:06.319Z,20.90
2018-08-20T07:27:37.753Z,20.90
2018-08-20T07:30:10.401Z,20.90
2018-08-20T07:32:41.971Z,20.90
2018-08-20T07:35:14.001Z,20.90
2018-08-20T07:37:45.213Z,20.90
2018-08-20T07:40:16.523Z,20.90
2018-08-20T07:42:47.127Z,20.90
2018-08-20T07:45:19.431Z,20.90
2018-08-20T07:47:50.377Z,21.00
2018-08-20T07:50:21.452Z,21.00
2018-08-20T07:52:51.861Z,21.10
2018-08-20T07:55:23.251Z,21.30
2018-08-20T07:57:53.856Z,21.30
2018-08-20T08:00:25.528Z,21.40
2018-08-20T08:02:57.125Z,21.40
2018-08-20T08:05:29.497Z,21.40
2018-08-20T08:08:00.235Z,21.40
2018-08-20T08:10:31.681Z,21.40
2018-08-20T08:13:03.960Z,21.50
2018-08-20T08:15:35.263Z,21.50
2018-08-20T08:18:07.923Z,21.50
2018-08-20T08:20:41.987Z,21.50
2018-08-20T08:23:12.972Z,21.60
2018-08-20T08:25:44.290Z,21.60
2018-08-20T08:28:16.106Z,21.70
2018-08-20T08:30:49.426Z,21.80
2018-08-20T08:33:20.520Z,21.90
2018-08-20T08:35:51.232Z,21.90
2018-08-20T08:38:21.976Z,21.80
2018-08-20T08:40:54.602Z,21.90
2018-08-20T08:43:27.372Z,22.00
2018-08-20T08:45:58.080Z,22.10
2018-08-20T08:48:28.706Z,22.20
2018-08-20T08:51:00.849Z,22.20
2018-08-20T08:53:33.000Z,22.30
2018-08-20T08:56:05.077Z,22.20
2018-08-20T08:58:38.682Z,22.30
2018-08-20T09:01:09.191Z,22.50
2018-08-20T09:03:41.425Z,22.30
2018-08-20T09:06:13.696Z,22.40
2018-08-20T09:08:44.428Z,22.50
2018-08-20T09:11:15.510Z,22.50
2018-08-20T09:13:48.813Z,22.60
2018-08-20T09:16:21.071Z,22.50
2018-08-20T09:18:52.242Z,22.50
2018-08-20T09:21:25.354Z,22.60
2018-08-20T09:23:57.275Z,22.60
2018-08-20T09:26:28.610Z,22.50
2018-08-20T09:29:00.382Z,22.70
2018-08-20T09:31:32.839Z,22.70
2018-08-20T09:34:04.106Z,22.60
2018-08-20T09:36:35.566Z,22.70
2018-08-20T09:39:08.317Z,22.70
2018-08-20T09:41:40.508Z,23.00
2018-08-20T09:44:12.519Z,22.90
2018-08-20T09:46:43.843Z,23.00
2018-08-20T09:49:15.160Z,22.90
2018-08-20T09:51:47.317Z,22.90
2018-08-20T09:54:19.357Z,23.10
2018-08-20T09:56:52.394Z,23.20
2018-08-20T09:59:23.473Z,23.20
2018-08-20T10:01:54.644Z,23.30
2018-08-20T10:04:25.501Z,23.10
2018-08-20T10:06:57.171Z,23.10
2018-08-20T10:09:28.264Z,23.30
2018-08-20T10:11:58.849Z,23.50
2018-08-20T10:14:29.596Z,23.40
2018-08-20T10:17:02.943Z,23.50
2018-08-20T10:19:34.027Z,23.80
2018-08-20T10:22:07.029Z,23.90
2018-08-20T10:24:38.240Z,24.10
2018-08-20T10:27:09.323Z,24.20
2018-08-20T10:29:40.524Z,24.10
2018-08-20T10:32:12.374Z,24.10
2018-08-20T10:34:44.953Z,24.00
2018-08-20T10:37:17.595Z,24.00
2018-08-20T10:39:48.912Z,24.10
2018-08-20T10:42:19.998Z,23.90
2018-08-20T10:44:55.051Z,23.70
2018-08-20T10:47:28.427Z,23.60
2018-08-20T10:49:59.989Z,23.70
2018-08-20T10:52:30.917Z,23.70
2018-08-20T10:55:01.279Z,23.90
2018-08-20T10:57:32.594Z,24.10
2018-08-20T11:00:05.119Z,24.00
2018-08-20T11:02:37.163Z,23.90
2018-08-20T11:05:10.758Z,23.80
2018-08-20T11:07:41.000Z,23.80
2018-08-20T11:10:11.720Z,23.90
2018-08-20T11:12:41.962Z,23.90
2018-08-20T11:15:12.803Z,23.80
2018-08-20T11:17:43.292Z,23.80
2018-08-20T11:20:15.710Z,23.80
2018-08-20T11:22:49.542Z,23.70
2018-08-20T11:25:29.262Z,24.00
2018-08-20T11:28:00.089Z,23.80
2018-08-20T11:30:30.451Z,23.90
2018-08-20T11:33:00.608Z,23.70
2018-08-20T11:35:31.650Z,23.60
2018-08-20T11:38:02.393Z,23.40
2018-08-20T11:40:33.346Z,23.50
2018-08-20T11:43:04.051Z,23.40
2018-08-20T11:45:34.782Z,23.40
2018-08-20T11:48:05.978Z,23.40
2018-08-20T11:50:38.271Z,23.20
2018-08-20T11:53:09.592Z,23.20
2018-08-20T11:55:41.160Z,23.30
2018-08-20T11:58:12.584Z,23.20
2018-08-20T12:00:43.664Z,23.00
2018-08-20T12:03:15.104Z,23.00
2018-08-20T12:05:47.381Z,22.80
2018-08-20T12:08:19.423Z,22.50
2018-08-20T12:12:19.065Z,22.30
2018-08-20T12:14:50.883Z,22.20
2018-08-20T12:17:23.108Z,22.10
2018-08-20T12:19:54.831Z,22.10
2018-08-20T12:22:26.165Z,22.00
2018-08-20T12:24:57.251Z,22.00
2018-08-20T12:27:29.319Z,21.90
2018-08-20T12:30:00.732Z,21.70
2018-08-20T12:32:35.051Z,21.70
2018-08-20T12:35:07.213Z,21.60
2018-08-20T12:37:38.157Z,21.60
2018-08-20T12:40:09.560Z,21.60
2018-08-20T12:42:42.632Z,21.70
2018-08-20T12:45:13.684Z,21.80
2018-08-20T12:47:44.651Z,21.80
2018-08-20T12:50:15.485Z,21.90
2018-08-20T12:52:46.468Z,21.90
2018-08-20T12:55:17.055Z,22.00
2018-08-20T12:57:49.100Z,22.10
2018-08-20T13:00:19.695Z,22.10
2018-08-20T13:02:50.784Z,22.20
2018-08-20T13:05:21.866Z,22.10
2018-08-20T13:07:53.542Z,22.10
2018-08-20T13:10:25.469Z,22.10
2018-08-20T13:12:57.983Z,22.20
2018-08-20T13:15:28.946Z,22.20
2018-08-20T13:17:59.546Z,22.30
2018-08-20T13:20:30.656Z,22.50
2018-08-20T13:23:01.235Z,22.70
2018-08-20T13:25:33.397Z,22.80
2018-08-20T13:28:04.353Z,23.00
2018-08-20T13:30:37.219Z,23.10
2018-08-20T13:33:08.118Z,23.40
2018-08-20T13:35:40.480Z,23.60
2018-08-20T13:38:13.132Z,23.60
2018-08-20T13:40:45.443Z,23.70
2018-08-20T13:43:17.373Z,23.70
2018-08-20T13:45:48.886Z,23.80
2018-08-20T13:48:21.160Z,24.00
2018-08-20T13:50:53.215Z,24.10
2018-08-20T13:53:24.792Z,24.00
2018-08-20T13:55:55.611Z,24.20
2018-08-20T13:58:25.720Z,24.20
2018-08-20T14:00:59.006Z,24.10
2018-08-20T14:03:29.637Z,23.90
2018-08-20T14:06:00.646Z,24.00
2018-08-20T14:08:31.850Z,24.20
2018-08-20T14:11:04.615Z,24.30
2018-08-20T14:13:36.579Z,24.20
2018-08-20T14:16:07.371Z,24.50
2018-08-20T14:18:39.187Z,24.60
2018-08-20T14:21:13.619Z,24.70
2018-08-20T14:23:46.992Z,24.60
2018-08-20T14:26:18.201Z,24.30
2018-08-20T14:28:49.747Z,24.00
2018-08-20T14:31:21.577Z,24.20
2018-08-20T14:33:52.623Z,24.30
2018-08-20T14:36:24.135Z,24.50
2018-08-20T14:38:56.109Z,24.40
2018-08-20T14:41:28.037Z,24.20
2018-08-20T14:43:59.852Z,24.20
2018-08-20T14:46:30.676Z,24.00
2018-08-20T14:49:02.593Z,23.90
2018-08-20T14:51:35.131Z,24.00
2018-08-20T14:54:06.559Z,24.00
2018-08-20T14:56:37.778Z,24.00
2018-08-20T14:59:08.607Z,24.10
2018-08-20T15:01:41.597Z,24.30
2018-08-20T15:04:15.083Z,24.20
2018-08-20T15:07:08.745Z,24.30
2018-08-20T15:09:41.115Z,24.40
2018-08-20T15:12:12.796Z,24.30
2018-08-20T15:14:43.928Z,24.30
2018-08-20T15:17:15.209Z,24.00
2018-08-20T15:19:46.038Z,23.90
2018-08-20T15:22:17.137Z,23.60
2018-08-20T15:24:49.566Z,23.70
2018-08-20T15:27:20.863Z,23.80
2018-08-20T15:29:52.344Z,23.70
2018-08-20T15:32:24.284Z,23.60
2018-08-20T15:34:56.014Z,23.60
2018-08-20T15:37:28.070Z,23.70
2018-08-20T15:39:58.659Z,23.70
2018-08-20T15:42:30.609Z,23.90
2018-08-20T15:45:01.467Z,23.90
2018-08-20T15:47:32.290Z,24.10
2018-08-20T15:50:02.875Z,24.00
2018-08-20T15:52:34.300Z,23.80
2018-08-20T15:55:05.648Z,23.70
2018-08-20T15:57:36.473Z,23.90
2018-08-20T16:00:08.147Z,24.00
2018-08-20T16:02:39.474Z,24.00
2018-08-20T16:05:10.300Z,24.10
2018-08-20T16:07:41.622Z,24.00
2018-08-20T16:10:12.730Z,24.00
2018-08-20T16:12:43.192Z,24.10
2018-08-20T16:15:14.563Z,24.20
2018-08-20T16:17:45.942Z,24.30
2018-08-20T16:20:17.779Z,24.20
2018-08-20T16:22:48.498Z,24.00
2018-08-20T16:25:21.471Z,23.90
2018-08-20T16:27:53.187Z,23.80
2018-08-20T16:30:24.725Z,23.40
2018-08-20T16:32:55.789Z,23.20
2018-08-20T16:35:26.871Z,22.90
2018-08-20T16:38:00.987Z,22.60
2018-08-20T16:40:31.688Z,22.50
2018-08-20T16:43:02.157Z,22.40
2018-08-20T16:45:33.920Z,22.10
2018-08-20T16:48:04.921Z,22.10
2018-08-20T16:50:36.380Z,22.00
2018-08-20T16:53:07.816Z,21.90
2018-08-20T16:55:38.892Z,21.80
2018-08-20T16:58:09.489Z,21.80
2018-08-20T17:00:40.446Z,21.80
2018-08-20T17:03:12.966Z,21.70
2018-08-20T17:05:49.220Z,21.80
2018-08-20T17:08:24.273Z,21.70
2018-08-20T17:10:56.176Z,21.60
2018-08-20T17:13:26.410Z,21.60
2018-08-20T17:16:00.608Z,21.60
2018-08-20T17:18:31.585Z,21.60
2018-08-20T17:21:02.358Z,21.50
2018-08-20T17:23:36.010Z,21.60
2018-08-20T17:26:08.181Z,21.60
2018-08-20T17:28:39.616Z,21.60
2018-08-20T17:31:14.042Z,21.60
2018-08-20T17:33:45.738Z,21.60
2018-08-20T17:36:16.352Z,21.50
2018-08-20T17:38:48.398Z,21.50
2018-08-20T17:41:19.470Z,21.60
2018-08-20T17:43:50.330Z,21.60
2018-08-20T17:46:22.009Z,21.60
2018-08-20T17:48:52.712Z,21.60
2018-08-20T17:51:25.114Z,21.60
2018-08-20T17:54:00.036Z,21.50
2018-08-20T17:56:30.884Z,21.50
2018-08-20T17:59:06.518Z,21.50
2018-08-20T18:01:37.613Z,21.40
2018-08-20T18:04:08.440Z,21.20
2018-08-20T18:06:48.305Z,21.20
2018-08-20T18:09:19.370Z,21.10
2018-08-20T18:11:52.873Z,21.10
2018-08-20T18:14:25.273Z,21.10
2018-08-20T18:16:55.964Z,21.10
2018-08-20T18:19:28.263Z,21.10
2018-08-20T18:22:16.626Z,21.10
2018-08-20T18:24:58.371Z,21.00
2018-08-20T18:33:58.377Z,21.00
2018-08-20T18:37:04.054Z,20.90
2018-08-20T18:42:56.253Z,20.90
2018-08-20T18:45:47.379Z,20.90
2018-08-20T18:48:26.017Z,20.80
2018-08-20T18:50:56.711Z,20.80
2018-08-20T18:53:34.521Z,20.80
2018-08-20T18:56:26.717Z,20.70
